Time;durP1;ratioP1;P1;durP2;ratioP2;P2;SDS_P1;SDS_P2;PMS_P1;PMS_P2;Temp;Humidity;BMP_temperature;BMP_pressure;BME280_temperature;BME280_humidity;BME280_pressure;Samples;Min_cycle;Max_cycle;Signal;HPM_P1;HPM_P2
2022/10/06 00:01:42;;;;;;;9.10;4.22;;;;;;;9.50;93.49;100403.97;10481241;27;20414;-77
2022/10/06 00:06:44;;;;;;;11.57;5.28;;;;;;;9.29;93.66;100396.94;10482939;28;20037;-78
2022/10/06 00:11:50;;;;;;;7.40;4.60;;;;;;;9.31;94.23;100403.78;10463370;28;20531;-77
2022/10/06 00:16:53;;;;;;;8.70;4.32;;;;;;;9.68;94.38;100405.28;10464799;28;20037;-78
2022/10/06 00:21:55;;;;;;;9.25;3.72;;;;;;;9.66;94.85;100405.56;10471331;27;20045;-78
2022/10/06 00:26:58;;;;;;;7.75;3.83;;;;;;;9.61;94.81;100393.81;10463017;27;20049;-79
2022/10/06 00:32:00;;;;;;;8.50;4.65;;;;;;;9.59;94.96;100380.41;10456124;28;20037;-79
2022/10/06 00:37:03;;;;;;;10.35;4.72;;;;;;;9.45;94.79;100384.03;10464097;28;20056;-79
2022/10/06 00:42:05;;;;;;;10.27;4.93;;;;;;;9.40;95.50;100387.59;10465546;27;20060;-79
2022/10/06 00:47:08;;;;;;;12.32;5.18;;;;;;;9.62;95.77;100384.50;10432382;28;20041;-79
2022/10/06 00:52:14;;;;;;;7.55;3.90;;;;;;;9.62;96.14;100385.31;10483833;27;20053;-77
2022/10/06 00:57:17;;;;;;;8.68;4.30;;;;;;;9.78;95.53;100372.34;10449767;28;20245;-77
2022/10/06 01:02:22;;;;;;;7.38;4.63;;;;;;;9.79;95.64;100371.25;10444725;28;20057;-79
2022/10/06 01:07:29;;;;;;;9.32;4.85;;;;;;;9.78;95.10;100355.91;10458641;28;20041;-79
2022/10/06 01:13:01;;;;;;;7.38;4.63;;;;;;;9.53;95.78;100347.81;10436999;28;20051;-79
2022/10/06 01:18:12;;;;;;;8.70;4.60;;;;;;;9.51;95.26;100322.63;10443058;28;20053;-79
2022/10/06 01:23:15;;;;;;;6.05;3.95;;;;;;;9.42;96.26;100308.72;10428707;28;20049;-79
2022/10/06 01:28:21;;;;;;;7.05;3.58;;;;;;;9.48;96.92;100302.09;10424246;27;20033;-79
2022/10/06 01:33:24;;;;;;;4.93;2.80;;;;;;;9.30;97.10;100308.22;10457581;28;20153;-77
2022/10/06 01:38:27;;;;;;;4.60;2.75;;;;;;;9.30;97.67;100309.03;10418593;28;20042;-79
2022/10/06 01:43:38;;;;;;;4.13;2.65;;;;;;;9.24;98.46;100296.47;10434950;28;20040;-78
2022/10/06 01:48:41;;;;;;;3.55;2.70;;;;;;;9.33;98.58;100291.22;10427941;28;20046;-78
2022/10/06 01:53:44;;;;;;;3.53;2.42;;;;;;;9.36;99.28;100288.75;10448386;27;20045;-78
2022/10/06 01:58:47;;;;;;;3.25;2.40;;;;;;;9.58;99.90;100284.81;10463914;28;20059;-78
2022/10/06 02:03:53;;;;;;;4.23;2.53;;;;;;;9.65;100.00;100282.56;10431422;28;20510;-78
2022/10/06 02:08:55;;;;;;;3.85;2.38;;;;;;;9.73;99.82;100281.16;10468681;28;20061;-78
2022/10/06 02:14:00;;;;;;;3.55;2.35;;;;;;;10.02;99.19;100289.44;10413634;27;20033;-78
2022/10/06 02:19:02;;;;;;;3.22;2.28;;;;;;;9.98;99.31;100278.22;10521179;27;20045;-78
2022/10/06 02:24:05;;;;;;;3.40;1.80;;;;;;;10.03;98.54;100280.91;10587052;27;20039;-78
2022/10/06 02:29:07;;;;;;;2.85;2.20;;;;;;;10.12;98.75;100267.44;10428371;28;20046;-78
2022/10/06 02:34:09;;;;;;;2.17;1.48;;;;;;;10.19;98.16;100257.75;10471608;28;20526;-79
2022/10/06 02:39:11;;;;;;;5.07;2.00;;;;;;;10.24;98.41;100254.19;10440604;28;20049;-79
2022/10/06 02:44:14;;;;;;;3.60;1.80;;;;;;;10.25;97.96;100253.91;10461451;28;20156;-78
2022/10/06 02:49:18;;;;;;;3.55;2.22;;;;;;;10.30;98.19;100246.72;10428754;28;20052;-78
2022/10/06 02:54:21;;;;;;;1.98;1.70;;;;;;;10.20;98.24;100240.19;10427147;28;20044;-78
2022/10/06 02:59:23;;;;;;;3.15;1.70;;;;;;;10.10;98.69;100236.75;10448426;27;20418;-78
2022/10/06 03:04:26;;;;;;;4.32;2.17;;;;;;;10.29;99.22;100234.94;10478571;27;20059;-78
2022/10/06 03:09:28;;;;;;;2.40;1.85;;;;;;;10.39;99.31;100244.97;10483729;28;20052;-78
2022/10/06 03:14:32;;;;;;;3.40;2.10;;;;;;;10.60;98.69;100242.88;10444430;28;20041;-78
2022/10/06 03:19:36;;;;;;;5.32;2.33;;;;;;;10.57;98.72;100236.00;10480634;27;20138;-78
2022/10/06 03:24:38;;;;;;;4.63;2.30;;;;;;;10.72;98.45;100238.59;10477573;28;20045;-78
2022/10/06 03:29:40;;;;;;;3.45;2.03;;;;;;;10.78;98.08;100220.16;10397938;28;20049;-78
2022/10/06 03:34:45;;;;;;;3.85;2.42;;;;;;;10.71;97.54;100205.97;10442218;28;20496;-78
2022/10/06 03:39:49;;;;;;;5.53;2.72;;;;;;;10.72;97.52;100188.38;10430360;28;20060;-79
2022/10/06 03:44:52;;;;;;;5.10;2.70;;;;;;;10.68;97.84;100176.38;10441219;28;20037;-79
2022/10/06 03:49:54;;;;;;;5.30;2.88;;;;;;;10.69;98.17;100181.56;10492960;27;20076;-78
2022/10/06 03:54:56;;;;;;;8.15;3.17;;;;;;;10.73;98.67;100177.09;10475106;28;20033;-78
2022/10/06 03:59:59;;;;;;;5.75;3.10;;;;;;;10.80;98.79;100154.81;10491751;28;20046;-78
2022/10/06 04:05:01;;;;;;;7.70;3.10;;;;;;;10.88;98.38;100141.22;10447151;28;20041;-79
2022/10/06 04:10:05;;;;;;;6.10;3.55;;;;;;;10.90;99.21;100145.59;10431759;28;20049;-78
2022/10/06 04:15:36;;;;;;;8.45;4.32;;;;;;;10.93;98.55;100156.00;10464789;28;20057;-78
2022/10/06 04:20:39;;;;;;;5.95;3.85;;;;;;;10.93;99.42;100123.06;10464995;28;20052;-79
2022/10/06 04:25:42;;;;;;;7.30;3.97;;;;;;;10.81;99.79;100099.63;10449413;28;20045;-78
2022/10/06 04:31:04;;;;;;;8.57;4.15;;;;;;;10.71;100.00;100112.66;10480165;27;20429;-80
2022/10/06 04:36:07;;;;;;;6.68;4.13;;;;;;;10.80;100.00;100110.91;10462532;28;20042;-79
2022/10/06 04:41:13;;;;;;;10.15;4.28;;;;;;;10.83;100.00;100107.56;10436719;28;20149;-78
2022/10/06 04:46:16;;;;;;;6.75;3.72;;;;;;;10.85;100.00;100111.63;10426511;28;20054;-78
2022/10/06 04:51:20;;;;;;;8.40;3.97;;;;;;;11.04;100.00;100114.38;10464707;28;20138;-79
2022/10/06 04:56:28;;;;;;;6.82;3.83;;;;;;;11.06;100.00;100117.66;10501354;27;20038;-79
2022/10/06 05:01:34;;;;;;;7.50;4.35;;;;;;;11.11;100.00;100114.84;10662690;27;20042;-79
2022/10/06 05:06:40;;;;;;;8.82;4.28;;;;;;;11.10;100.00;100107.69;10678620;27;20420;-78
2022/10/06 05:11:43;;;;;;;7.90;3.83;;;;;;;11.36;100.00;100099.88;10573369;27;20045;-78
2022/10/06 05:17:17;;;;;;;6.75;4.03;;;;;;;11.69;100.00;100099.91;10547606;27;20040;-79
2022/10/06 05:22:26;;;;;;;6.00;3.47;;;;;;;11.89;100.00;100074.00;10440465;28;20060;-79
2022/10/06 05:27:28;;;;;;;6.57;3.63;;;;;;;11.99;98.77;100076.56;10471614;28;20134;-79
2022/10/06 05:32:31;;;;;;;6.93;3.42;;;;;;;12.00;98.20;100067.19;10434888;28;20057;-79
2022/10/06 05:37:37;;;;;;;5.47;3.72;;;;;;;12.07;97.14;100062.09;10410424;28;20426;-79
2022/10/06 05:42:40;;;;;;;10.70;3.92;;;;;;;12.08;97.19;100060.97;10453886;28;20045;-77
2022/10/06 05:47:42;;;;;;;4.90;3.25;;;;;;;11.98;97.27;100072.19;10436264;28;20041;-77
2022/10/06 05:52:44;;;;;;;5.25;3.78;;;;;;;12.14;97.36;100057.00;10419582;28;20037;-77
2022/10/06 05:57:47;;;;;;;6.63;3.70;;;;;;;12.19;97.35;100062.41;10449223;28;20037;-77
2022/10/06 06:02:49;;;;;;;5.40;3.53;;;;;;;12.23;96.86;100046.91;10509769;28;20048;-77
2022/10/06 06:07:55;;;;;;;5.45;3.20;;;;;;;12.13;96.95;100043.53;10509141;28;20040;-78
2022/10/06 06:12:58;;;;;;;5.07;3.28;;;;;;;12.12;97.35;100041.91;10508406;28;20557;-77
2022/10/06 06:18:08;;;;;;;5.57;3.47;;;;;;;12.24;97.20;100042.22;10492238;28;20410;-77
2022/10/06 06:23:11;;;;;;;5.00;2.83;;;;;;;12.37;96.87;100022.97;10491792;28;20053;-78
2022/10/06 06:28:13;;;;;;;4.43;3.00;;;;;;;12.40;96.86;100018.78;10497661;28;20056;-78
2022/10/06 06:33:16;;;;;;;4.22;3.13;;;;;;;12.53;95.97;100017.94;10484272;27;20150;-78
2022/10/06 06:38:18;;;;;;;5.78;3.10;;;;;;;12.59;95.45;100013.13;10537254;27;20045;-78
2022/10/06 06:43:20;;;;;;;4.90;3.20;;;;;;;12.67;94.20;99990.38;10553089;27;20486;-78
2022/10/06 06:48:49;;;;;;;7.43;3.65;;;;;;;12.73;94.12;99983.63;10533508;27;20495;-78
2022/10/06 06:53:52;;;;;;;5.70;3.00;;;;;;;12.80;94.17;99978.50;10449663;28;20041;-78
2022/10/06 06:58:55;;;;;;;6.53;3.53;;;;;;;12.54;93.64;99977.47;10467403;28;20565;-78
2022/10/06 07:03:58;;;;;;;5.57;3.60;;;;;;;12.69;93.73;99977.13;10502217;27;20037;-78
2022/10/06 07:09:02;;;;;;;6.95;3.53;;;;;;;12.75;93.31;99967.59;10465363;28;20044;-78
2022/10/06 07:14:07;;;;;;;6.00;3.58;;;;;;;12.72;92.94;99978.44;10498939;27;20044;-77
2022/10/06 07:29:53;;;;;;;4.70;3.50;;;;;;;12.70;92.15;99977.94;10486867;28;20553;-78
2022/10/06 07:34:59;;;;;;;6.68;3.60;;;;;;;12.73;91.81;99978.13;10448645;28;20403;-78
2022/10/06 07:40:04;;;;;;;4.72;2.92;;;;;;;12.72;90.86;99984.75;10464933;28;20056;-78
2022/10/06 07:50:28;;;;;;;6.10;3.17;;;;;;;12.80;90.79;99961.97;10524323;28;20041;-77
2022/10/06 07:55:30;;;;;;;5.57;3.17;;;;;;;12.74;90.77;99943.97;10471685;28;20048;-77
2022/10/06 08:00:51;;;;;;;4.85;3.10;;;;;;;12.86;90.11;99965.44;10449980;28;20049;-77
2022/10/06 08:05:58;;;;;;;5.05;2.80;;;;;;;12.90;89.59;99971.94;10466864;28;20416;-77
2022/10/06 08:11:00;;;;;;;5.40;3.50;;;;;;;12.89;89.42;99962.06;10478899;28;20049;-77
2022/10/06 08:16:13;;;;;;;4.35;3.05;;;;;;;12.85;89.20;99950.84;10481323;28;20389;-78
2022/10/06 08:21:18;;;;;;;5.30;2.88;;;;;;;12.96;88.82;99943.13;10462470;28;20072;-77
2022/10/06 08:26:22;;;;;;;5.07;3.17;;;;;;;12.92;88.80;99953.97;10463096;28;20033;-76
2022/10/06 08:31:24;;;;;;;6.22;2.88;;;;;;;12.93;88.29;99944.56;10481978;28;20049;-76
2022/10/06 08:36:27;;;;;;;4.70;3.05;;;;;;;12.87;88.36;99945.84;10480571;28;20544;-77
2022/10/06 08:41:38;;;;;;;4.68;3.17;;;;;;;12.69;88.98;99935.84;10480496;28;20056;-76
2022/10/06 08:46:48;;;;;;;3.85;2.97;;;;;;;12.68;89.51;99926.75;10521751;28;20135;-76
2022/10/06 08:52:07;;;;;;;6.20;3.10;;;;;;;12.73;90.08;99914.00;10522293;28;20063;-77
2022/10/06 08:57:33;;;;;;;3.97;2.63;;;;;;;12.64;89.91;99905.66;10495443;28;20438;-79
2022/10/06 09:02:40;;;;;;;6.18;3.13;;;;;;;12.55;90.41;99896.53;10450221;28;20044;-77
2022/10/06 09:08:23;;;;;;;4.57;2.60;;;;;;;12.46;90.55;99906.66;10421489;28;20048;-77
2022/10/06 09:13:29;;;;;;;6.82;3.13;;;;;;;12.36;90.87;99899.47;10439024;28;20075;-78
2022/10/06 09:18:37;;;;;;;6.28;3.42;;;;;;;12.29;91.26;99899.88;10420888;28;20049;-78
2022/10/06 09:23:49;;;;;;;3.33;2.60;;;;;;;12.28;91.41;99900.19;10467432;27;20060;-78
2022/10/06 09:28:52;;;;;;;4.47;2.15;;;;;;;12.24;91.83;99883.50;10481920;28;20036;-79
2022/10/06 09:34:19;;;;;;;3.63;3.17;;;;;;;12.16;92.05;99892.50;10457862;27;20053;-77
2022/10/06 09:39:27;;;;;;;6.30;3.30;;;;;;;12.04;92.67;99873.78;10585503;27;20038;-77
2022/10/06 09:44:30;;;;;;;;;;;;;;;12.04;92.82;99871.03;10465075;28;20036;-77
2022/10/06 09:49:32;;;;;;;4.43;3.22;;;;;;;12.01;93.55;99868.09;10477070;28;19920;-77
2022/10/06 09:54:37;;;;;;;6.28;3.35;;;;;;;12.01;93.50;99868.09;10475251;28;20056;-77
2022/10/06 09:59:41;;;;;;;9.30;4.32;;;;;;;12.05;93.83;99852.59;10492875;28;20037;-77
2022/10/06 10:04:44;;;;;;;5.45;3.50;;;;;;;12.04;93.83;99846.28;10492486;28;20053;-77
2022/10/06 10:09:46;;;;;;;5.38;3.30;;;;;;;12.01;93.91;99852.41;10484768;27;20417;-76
2022/10/06 10:20:28;;;;;;;5.97;3.47;;;;;;;11.91;93.45;99847.13;10542021;27;20133;-77
2022/10/06 10:25:43;;;;;;;5.65;3.53;;;;;;;11.91;94.37;99838.06;10454050;27;20053;-78
2022/10/06 10:30:59;;;;;;;7.75;3.80;;;;;;;11.87;94.19;99834.31;10467853;28;20041;-77
2022/10/06 10:36:03;;;;;;;6.30;3.88;;;;;;;11.92;94.56;99820.44;10507671;28;20048;-78
2022/10/06 10:41:19;;;;;;;5.47;3.90;;;;;;;11.93;94.81;99808.31;10488767;28;20490;-78
2022/10/06 10:46:29;;;;;;;9.10;3.33;;;;;;;11.93;94.97;99792.63;10477234;28;20053;-78
2022/10/06 10:51:42;;;;;;;5.97;4.10;;;;;;;11.97;94.75;99787.31;10420945;28;20407;-78
2022/10/06 10:56:47;;;;;;;5.10;3.58;;;;;;;12.01;94.51;99764.41;10464189;28;20056;-77
2022/10/06 11:01:59;;;;;;;7.82;4.88;;;;;;;12.04;94.20;99758.28;10481464;28;20047;-77
2022/10/06 11:07:16;;;;;;;5.25;3.67;;;;;;;12.14;93.48;99729.72;10463093;27;20048;-79
2022/10/06 11:12:33;;;;;;;5.97;4.00;;;;;;;12.25;93.05;99736.59;10482666;28;20226;-79
2022/10/06 11:17:43;;;;;;;5.45;3.75;;;;;;;12.28;92.06;99722.19;10482314;28;20036;-80
2022/10/06 11:22:55;;;;;;;7.10;4.40;;;;;;;12.34;91.61;99717.41;10464862;28;20049;-81
2022/10/06 11:28:38;;;;;;;5.93;4.47;;;;;;;12.54;90.94;99703.09;10460492;28;20075;-80
2022/10/06 11:33:49;;;;;;;8.60;4.00;;;;;;;12.38;89.41;99688.94;10483007;28;20499;-79
2022/10/06 11:39:20;;;;;;;7.40;4.20;;;;;;;12.28;89.92;99680.13;10464823;27;20048;-80
2022/10/06 11:44:57;;;;;;;7.85;4.43;;;;;;;12.20;89.73;99694.66;10441429;28;20049;-82
2022/10/06 11:49:59;;;;;;;7.18;3.65;;;;;;;12.16;90.28;99688.97;10463585;27;20423;-80
2022/10/06 11:55:17;;;;;;;7.63;4.55;;;;;;;12.15;90.29;99679.09;10453923;28;20041;-82
2022/10/06 12:00:19;;;;;;;6.68;4.10;;;;;;;12.13;90.34;99681.34;10468918;28;20057;-81
2022/10/06 12:05:31;;;;;;;7.17;4.63;;;;;;;12.14;90.71;99682.16;10439606;28;20411;-81
2022/10/06 12:10:33;;;;;;;8.43;3.85;;;;;;;12.14;90.24;99669.22;10454847;28;20436;-81
2022/10/06 12:16:24;;;;;;;5.43;4.10;;;;;;;12.14;90.61;99673.91;10463765;28;20037;-81
2022/10/06 12:21:51;;;;;;;6.47;3.90;;;;;;;12.13;90.47;99670.34;10464750;28;20053;-80
2022/10/06 12:27:10;;;;;;;5.35;3.92;;;;;;;12.13;90.74;99655.78;10464797;28;20036;-81
2022/10/06 12:32:36;;;;;;;4.25;2.92;;;;;;;12.12;91.09;99663.22;10473798;28;20041;-80
2022/10/06 12:37:46;;;;;;;3.60;2.47;;;;;;;12.13;90.88;99653.03;10463109;28;20165;-80
2022/10/06 12:42:48;;;;;;;7.70;3.17;;;;;;;12.12;91.08;99654.97;10456957;28;20037;-80
2022/10/06 12:47:51;;;;;;;4.88;3.72;;;;;;;12.10;91.81;99651.72;10481183;27;20029;-80
2022/10/06 12:52:59;;;;;;;6.05;4.10;;;;;;;12.05;92.28;99649.13;10453821;27;20040;-81
2022/10/06 12:58:01;;;;;;;7.43;4.40;;;;;;;11.97;93.39;99645.16;10447868;28;20045;-82
2022/10/06 13:03:07;;;;;;;9.07;4.57;;;;;;;11.91;94.42;99643.69;10447113;28;20534;-81
2022/10/06 13:08:36;;;;;;;4.97;3.70;;;;;;;11.82;95.54;99645.59;10444871;28;20341;-81
2022/10/06 13:13:50;;;;;;;5.78;3.30;;;;;;;11.75;96.68;99640.47;10460284;27;20042;-83
2022/10/06 13:18:56;;;;;;;6.45;4.05;;;;;;;11.68;97.27;99640.13;10468531;27;20109;-80
2022/10/06 13:23:58;;;;;;;5.75;4.00;;;;;;;11.68;98.08;99629.13;10446016;28;20056;-81
2022/10/06 13:29:01;;;;;;;3.47;2.47;;;;;;;11.67;98.80;99630.25;10443784;28;20623;-82
2022/10/06 13:34:03;;;;;;;5.15;3.15;;;;;;;11.66;99.31;99627.81;10490935;27;20041;-84
2022/10/06 13:39:11;;;;;;;5.72;3.33;;;;;;;11.65;99.76;99620.72;10439822;27;20530;-83
2022/10/06 13:44:13;;;;;;;4.50;3.28;;;;;;;11.63;100.00;99615.53;10444982;27;20053;-86
2022/10/06 13:49:21;;;;;;;5.32;4.03;;;;;;;11.65;100.00;99620.72;10482321;27;20049;-83
2022/10/06 13:54:34;;;;;;;4.65;2.80;;;;;;;11.65;100.00;99624.25;10437551;27;20041;-84
2022/10/06 13:59:37;;;;;;;4.88;3.22;;;;;;;11.66;100.00;99620.38;10467514;27;20053;-83
2022/10/06 14:04:39;;;;;;;4.78;3.10;;;;;;;11.68;100.00;99626.38;10452449;27;20041;-79
2022/10/06 14:09:42;;;;;;;4.47;2.83;;;;;;;11.66;100.00;99625.88;10454921;27;20037;-86
2022/10/06 14:14:48;;;;;;;3.60;2.58;;;;;;;11.65;100.00;99623.47;10450355;27;20041;-83
2022/10/06 14:19:50;;;;;;;3.33;2.35;;;;;;;11.66;100.00;99619.59;10467066;28;20041;-83
2022/10/06 14:24:57;;;;;;;2.20;1.80;;;;;;;11.68;100.00;99634.63;10460938;28;20041;-82
2022/10/06 14:29:59;;;;;;;3.08;2.13;;;;;;;11.72;100.00;99645.81;10480774;28;20048;-83
2022/10/06 14:35:02;;;;;;;1.77;1.55;;;;;;;11.74;100.00;99635.31;10455455;27;20048;-85
2022/10/06 14:40:05;;;;;;;2.55;1.88;;;;;;;11.77;100.00;99651.16;10477319;27;20819;-81
2022/10/06 14:45:08;;;;;;;2.60;2.05;;;;;;;11.78;100.00;99652.78;10477768;28;20541;-83
2022/10/06 14:50:15;;;;;;;2.97;1.98;;;;;;;11.80;99.61;99667.06;10472263;27;20060;-85
2022/10/06 14:55:17;;;;;;;3.17;1.52;;;;;;;11.81;99.22;99667.88;10471018;28;20033;-81
2022/10/06 15:00:20;;;;;;;2.25;1.27;;;;;;;11.82;97.49;99666.75;10480445;28;20037;-86
2022/10/06 15:05:23;;;;;;;1.90;1.48;;;;;;;11.86;96.50;99692.50;10505959;27;20041;-89
2022/10/06 15:10:25;;;;;;;2.35;1.00;;;;;;;11.85;94.49;99699.94;10490488;28;20041;-83
2022/10/06 15:15:30;;;;;;;1.73;0.95;;;;;;;11.87;91.51;99696.88;10489001;28;20037;-84
2022/10/06 15:20:32;;;;;;;1.60;0.70;;;;;;;11.86;89.86;99712.56;10474071;28;20053;-87
2022/10/06 15:30:56;;;;;;;1.55;0.60;;;;;;;11.77;88.67;99741.84;10477549;28;20033;-82
2022/10/06 15:36:15;;;;;;;0.60;0.60;;;;;;;11.70;88.19;99747.00;10482239;28;20450;-83
2022/10/06 15:41:18;;;;;;;1.95;0.63;;;;;;;11.64;88.02;99759.22;10453185;28;20052;-82
2022/10/06 15:46:42;;;;;;;1.42;0.70;;;;;;;11.58;87.40;99772.25;10475037;28;20045;-82
2022/10/06 15:51:47;;;;;;;1.33;0.40;;;;;;;11.51;87.34;99793.84;10458980;28;20033;-82
2022/10/06 15:56:52;;;;;;;1.13;0.50;;;;;;;11.46;87.75;99796.72;10458288;27;20038;-82
2022/10/06 16:01:56;;;;;;;1.13;1.02;;;;;;;11.59;88.38;99826.09;10441169;28;20042;-82
2022/10/06 16:06:59;;;;;;;4.22;0.80;;;;;;;11.51;87.90;99843.31;10433308;28;20033;-82
2022/10/06 16:12:05;;;;;;;1.00;0.90;;;;;;;11.39;87.48;99860.28;10450815;28;20045;-82
2022/10/06 16:17:08;;;;;;;2.92;0.63;;;;;;;11.34;88.00;99870.56;10441406;28;20049;-83
2022/10/06 16:22:13;;;;;;;3.22;0.60;;;;;;;11.27;88.30;99878.38;10440421;28;20053;-82
2022/10/06 16:27:15;;;;;;;4.97;0.63;;;;;;;11.12;88.86;99888.56;10441500;28;20043;-80
2022/10/06 16:32:17;;;;;;;3.60;0.88;;;;;;;11.09;89.88;99891.09;10474875;28;20550;-81
2022/10/06 16:37:19;;;;;;;3.53;1.20;;;;;;;11.02;90.72;99927.19;10431367;28;20048;-80
2022/10/06 16:42:23;;;;;;;1.75;0.63;;;;;;;11.02;91.04;99934.59;10544117;27;20504;-80
2022/10/06 16:47:25;;;;;;;3.00;0.77;;;;;;;11.00;92.00;99948.63;10577766;27;20411;-80
2022/10/06 16:52:27;;;;;;;6.05;1.00;;;;;;;10.96;92.18;99941.31;10471743;28;20049;-81
2022/10/06 16:57:29;;;;;;;2.97;0.70;;;;;;;10.95;92.67;99958.91;10482032;28;20051;-80
2022/10/06 17:02:32;;;;;;;1.98;0.57;;;;;;;10.94;93.01;99969.06;10477268;27;20056;-80
2022/10/06 17:07:34;;;;;;;2.40;0.90;;;;;;;10.92;93.36;99971.25;10546928;27;20033;-80
2022/10/06 17:12:37;;;;;;;4.78;0.70;;;;;;;10.95;94.02;99983.59;10464867;28;20044;-79
2022/10/06 17:17:40;;;;;;;2.30;0.60;;;;;;;10.96;93.98;99998.94;10450145;27;20060;-76
2022/10/06 17:22:47;;;;;;;2.17;0.68;;;;;;;10.87;93.73;100007.03;10479070;27;20075;-80
2022/10/06 17:27:49;;;;;;;7.97;1.70;;;;;;;10.82;93.54;100013.44;10457025;27;20059;-80
2022/10/06 17:32:51;;;;;;;1.02;0.50;;;;;;;10.78;93.42;100006.09;10442606;27;20482;-79
2022/10/06 17:37:55;;;;;;;3.97;0.75;;;;;;;10.74;92.98;100018.75;10447023;27;20418;-83
2022/10/06 17:43:03;;;;;;;3.72;0.98;;;;;;;10.73;92.89;100028.91;10506504;28;20049;-84
2022/10/06 17:48:05;;;;;;;1.88;0.50;;;;;;;10.69;93.00;100033.38;10482513;27;20044;-80
2022/10/06 17:53:08;;;;;;;4.03;0.70;;;;;;;10.66;92.91;100031.22;10489530;27;20051;-82
2022/10/06 17:58:11;;;;;;;4.60;0.82;;;;;;;10.66;92.13;100046.88;10476400;27;20033;-81
2022/10/06 18:03:18;;;;;;;2.95;0.50;;;;;;;10.63;92.36;100044.72;10484355;27;20041;-78
2022/10/06 18:08:22;;;;;;;1.95;0.77;;;;;;;10.62;92.75;100054.06;10485359;27;20034;-77
2022/10/06 18:13:24;;;;;;;2.75;0.70;;;;;;;10.64;92.09;100060.91;10448164;28;20038;-77
2022/10/06 18:18:32;;;;;;;4.63;0.73;;;;;;;10.66;92.53;100071.56;10504121;27;20029;-78
2022/10/06 18:23:35;;;;;;;4.55;0.93;;;;;;;10.65;92.53;100078.19;10474991;27;20525;-78
2022/10/06 18:28:38;;;;;;;4.85;0.90;;;;;;;10.59;93.39;100080.19;10482498;28;20040;-78
2022/10/06 18:33:42;;;;;;;2.42;0.70;;;;;;;10.55;94.30;100081.84;10479303;27;20498;-82
2022/10/06 18:38:45;;;;;;;4.65;0.90;;;;;;;10.54;94.84;100093.94;10467649;28;20053;-81
2022/10/06 18:43:49;;;;;;;5.38;0.95;;;;;;;10.54;94.74;100093.94;10508469;27;20047;-81
2022/10/06 18:48:55;;;;;;;3.80;0.80;;;;;;;10.51;94.62;100100.84;10467761;27;20056;-81
2022/10/06 18:53:58;;;;;;;3.38;0.80;;;;;;;10.52;94.96;100099.72;10520955;27;20048;-81
2022/10/06 18:59:05;;;;;;;5.50;0.98;;;;;;;10.57;94.60;100107.06;10449112;27;20068;-80
2022/10/06 19:04:11;;;;;;;5.03;1.30;;;;;;;10.62;94.13;100095.22;10470690;27;20049;-76
2022/10/06 19:09:17;;;;;;;3.25;0.70;;;;;;;10.63;93.50;100096.88;10462987;27;20612;-75
2022/10/06 19:14:22;;;;;;;3.67;1.15;;;;;;;10.69;92.52;100121.19;10447371;27;20044;-77
2022/10/06 19:19:28;;;;;;;;;;;;;;;10.70;92.50;100128.31;10447282;27;20419;-75
2022/10/06 19:24:39;;;;;;;4.07;0.63;;;;;;;10.71;91.66;100126.38;10448269;28;19921;-73
2022/10/06 19:29:44;;;;;;;4.88;0.77;;;;;;;10.73;90.97;100127.72;10472536;27;20045;-73
2022/10/06 19:34:47;;;;;;;4.22;0.60;;;;;;;10.74;90.74;100134.84;10491059;27;20053;-73
2022/10/06 19:39:49;;;;;;;6.20;1.27;;;;;;;10.76;90.43;100140.88;10472774;27;20056;-73
2022/10/06 19:44:52;;;;;;;2.53;1.20;;;;;;;10.79;90.46;100145.75;10474151;27;20047;-74
2022/10/06 19:49:56;;;;;;;5.05;0.98;;;;;;;10.78;89.80;100144.13;10493575;28;20033;-73
2022/10/06 19:54:59;;;;;;;5.47;0.77;;;;;;;10.84;89.50;100136.63;10472706;28;20410;-73
2022/10/06 20:00:05;;;;;;;1.98;0.45;;;;;;;11.02;89.14;100160.53;10461791;27;20057;-77
2022/10/06 20:05:19;;;;;;;1.75;0.38;;;;;;;11.04;88.82;100163.81;10461827;28;20053;-77
2022/10/06 20:10:21;;;;;;;3.00;0.60;;;;;;;10.96;88.45;100180.94;10466768;28;20049;-78
2022/10/06 20:15:31;;;;;;;1.77;0.70;;;;;;;10.95;88.12;100178.50;10503788;27;20057;-77
2022/10/06 20:20:33;;;;;;;3.80;0.90;;;;;;;11.03;87.88;100177.84;10483955;27;20044;-77
2022/10/06 20:25:35;;;;;;;0.93;0.40;;;;;;;11.07;88.07;100174.19;10458812;28;20053;-76
2022/10/06 20:30:37;;;;;;;2.13;0.35;;;;;;;11.15;87.55;100176.28;10465650;27;20045;-76
2022/10/06 20:35:39;;;;;;;4.13;0.60;;;;;;;11.08;86.91;100191.47;10471641;27;20048;-76
2022/10/06 20:40:47;;;;;;;5.25;0.73;;;;;;;10.92;87.10;100190.88;10463319;28;20037;-76
2022/10/06 20:45:52;;;;;;;0.98;0.60;;;;;;;10.91;86.37;100194.72;10476477;28;20046;-76
2022/10/06 20:50:55;;;;;;;3.70;0.77;;;;;;;10.85;86.69;100198.66;10441819;28;20052;-76
2022/10/06 20:55:59;;;;;;;0.60;0.45;;;;;;;10.71;87.01;100203.22;10462443;27;20037;-75
2022/10/06 21:01:04;;;;;;;2.58;0.55;;;;;;;10.76;87.73;100203.13;10477994;28;20063;-77
2022/10/06 21:06:06;;;;;;;8.18;0.60;;;;;;;10.80;87.63;100202.28;10477462;28;20045;-76
2022/10/06 21:11:10;;;;;;;1.85;0.40;;;;;;;10.97;87.12;100210.03;10476922;28;20411;-77
2022/10/06 21:16:13;;;;;;;3.00;0.80;;;;;;;10.97;86.34;100203.72;10446915;28;20402;-74
2022/10/06 21:21:15;;;;;;;1.20;0.50;;;;;;;10.79;86.65;100208.06;10441532;28;20061;-76
2022/10/06 21:26:23;;;;;;;0.77;0.38;;;;;;;10.80;86.63;100217.94;10475811;28;20442;-76
2022/10/06 21:31:26;;;;;;;;;;;;;;;10.79;86.72;100230.84;10469467;27;20060;-75
2022/10/06 21:36:30;;;;;;;4.25;0.52;;;;;;;10.80;87.00;100226.16;10459665;27;19927;-76
2022/10/06 21:41:37;;;;;;;2.63;0.45;;;;;;;10.86;86.29;100222.25;10463842;28;20041;-77
2022/10/06 21:46:45;;;;;;;2.17;0.68;;;;;;;10.85;86.45;100232.41;10445105;28;20049;-74
2022/10/06 21:51:50;;;;;;;;;;;;;;;10.95;86.07;100236.97;10444703;28;20126;-75
2022/10/06 21:56:53;;;;;;;4.80;0.63;;;;;;;10.94;85.35;100237.25;10430352;28;19927;-74
2022/10/06 22:01:55;;;;;;;7.95;1.02;;;;;;;10.99;84.92;100237.19;10475491;28;20037;-74
2022/10/06 22:06:57;;;;;;;3.15;0.82;;;;;;;11.03;85.27;100247.28;10482729;27;20045;-81
2022/10/06 22:11:59;;;;;;;0.98;0.43;;;;;;;11.07;84.61;100240.09;10493539;28;20503;-74
2022/10/06 22:17:03;;;;;;;2.35;0.60;;;;;;;11.14;84.63;100235.06;10451828;28;20056;-75
2022/10/06 22:22:05;;;;;;;5.40;0.85;;;;;;;11.05;84.71;100236.81;10460876;28;20063;-74
2022/10/06 22:27:11;;;;;;;1.52;0.50;;;;;;;11.05;84.89;100244.25;10448250;28;20040;-75
2022/10/06 22:32:18;;;;;;;1.80;0.60;;;;;;;11.12;85.01;100248.28;10539567;27;20046;-74
2022/10/06 22:37:20;;;;;;;2.85;0.35;;;;;;;11.13;84.83;100249.91;10589272;27;20041;-72
2022/10/06 22:42:22;;;;;;;1.10;0.52;;;;;;;11.13;84.56;100247.16;10451223;28;20046;-72
2022/10/06 22:47:25;;;;;;;3.60;0.77;;;;;;;11.15;84.59;100246.88;10444507;28;20045;-72
2022/10/06 22:52:56;;;;;;;2.03;0.43;;;;;;;11.09;85.07;100251.59;10484752;28;20055;-79
2022/10/06 22:57:59;;;;;;;4.18;1.00;;;;;;;11.12;85.08;100252.97;10478733;27;20059;-83
2022/10/06 23:03:01;;;;;;;5.03;1.48;;;;;;;11.01;85.09;100263.25;10563323;27;20106;-82
2022/10/06 23:08:04;;;;;;;5.85;0.85;;;;;;;11.07;85.73;100250.25;10528907;27;20105;-83
2022/10/06 23:13:11;;;;;;;0.65;0.40;;;;;;;11.10;84.97;100245.00;10513437;27;20120;-83
2022/10/06 23:18:14;;;;;;;1.20;0.40;;;;;;;11.09;84.99;100240.59;10511012;28;20123;-86
2022/10/06 23:23:16;;;;;;;3.58;0.85;;;;;;;11.11;85.01;100257.63;10492959;27;20653;-78
2022/10/06 23:28:19;;;;;;;4.72;0.70;;;;;;;11.02;85.39;100250.31;10508103;27;20039;-77
2022/10/06 23:33:21;;;;;;;2.20;0.73;;;;;;;11.01;85.59;100263.25;10470456;27;20047;-80
2022/10/06 23:38:24;;;;;;;5.97;1.63;;;;;;;10.95;85.78;100258.94;10480658;27;20067;-80
2022/10/06 23:43:27;;;;;;;2.78;0.50;;;;;;;10.97;85.69;100253.97;10467831;28;20053;-75
2022/10/06 23:48:30;;;;;;;2.70;0.52;;;;;;;11.02;86.13;100258.56;10470163;28;20045;-76
2022/10/06 23:54:01;;;;;;;3.17;0.50;;;;;;;11.07;85.81;100258.50;10580697;27;20042;-81
2022/10/06 23:59:04;;;;;;;2.17;0.30;;;;;;;11.06;85.30;100267.84;10494975;27;20096;-81
